sensor_id;sensor_type;location;lat;lon;timestamp;P1;durP1;ratioP1;P2;durP2;ratioP2
11473;SDS011;5793;52.238;13.438;2024-03-02T00:01:43;55.60;;;34.43;;
11473;SDS011;5793;52.238;13.438;2024-03-02T00:04:11;59.47;;;35.00;;
11473;SDS011;5793;52.238;13.438;2024-03-02T00:06:39;60.63;;;36.23;;
11473;SDS011;5793;52.238;13.438;2024-03-02T00:09:07;57.43;;;34.97;;
11473;SDS011;5793;52.238;13.438;2024-03-02T00:11:37;55.67;;;35.07;;
11473;SDS011;5793;52.238;13.438;2024-03-02T00:14:06;59.43;;;35.77;;
11473;SDS011;5793;52.238;13.438;2024-03-02T00:16:36;54.47;;;35.10;;
11473;SDS011;5793;52.238;13.438;2024-03-02T00:19:03;59.27;;;37.00;;
11473;SDS011;5793;52.238;13.438;2024-03-02T00:21:33;61.43;;;35.47;;
11473;SDS011;5793;52.238;13.438;2024-03-02T00:24:02;62.30;;;36.43;;
11473;SDS011;5793;52.238;13.438;2024-03-02T00:26:43;59.83;;;34.57;;
11473;SDS011;5793;52.238;13.438;2024-03-02T00:29:11;56.47;;;34.50;;
11473;SDS011;5793;52.238;13.438;2024-03-02T00:31:44;65.83;;;35.27;;
11473;SDS011;5793;52.238;13.438;2024-03-02T00:34:12;53.63;;;33.70;;
11473;SDS011;5793;52.238;13.438;2024-03-02T00:36:42;57.60;;;34.97;;
11473;SDS011;5793;52.238;13.438;2024-03-02T00:39:11;54.47;;;34.47;;
11473;SDS011;5793;52.238;13.438;2024-03-02T00:41:41;61.10;;;36.43;;
11473;SDS011;5793;52.238;13.438;2024-03-02T00:44:10;54.70;;;34.67;;
11473;SDS011;5793;52.238;13.438;2024-03-02T00:46:40;57.90;;;36.00;;
11473;SDS011;5793;52.238;13.438;2024-03-02T00:49:17;63.23;;;37.80;;
11473;SDS011;5793;52.238;13.438;2024-03-02T00:51:48;63.00;;;37.50;;
11473;SDS011;5793;52.238;13.438;2024-03-02T00:54:19;58.03;;;35.83;;
11473;SDS011;5793;52.238;13.438;2024-03-02T00:56:48;58.47;;;35.67;;
11473;SDS011;5793;52.238;13.438;2024-03-02T00:59:16;60.43;;;36.17;;
11473;SDS011;5793;52.238;13.438;2024-03-02T01:01:44;61.57;;;37.97;;
11473;SDS011;5793;52.238;13.438;2024-03-02T01:04:13;52.80;;;33.97;;
11473;SDS011;5793;52.238;13.438;2024-03-02T01:06:41;67.07;;;37.83;;
11473;SDS011;5793;52.238;13.438;2024-03-02T01:09:09;57.07;;;35.60;;
11473;SDS011;5793;52.238;13.438;2024-03-02T01:11:38;62.53;;;39.13;;
11473;SDS011;5793;52.238;13.438;2024-03-02T01:14:06;54.93;;;35.90;;
11473;SDS011;5793;52.238;13.438;2024-03-02T01:16:34;56.37;;;35.03;;
11473;SDS011;5793;52.238;13.438;2024-03-02T01:19:02;54.47;;;34.60;;
11473;SDS011;5793;52.238;13.438;2024-03-02T01:21:31;54.37;;;34.90;;
11473;SDS011;5793;52.238;13.438;2024-03-02T01:23:59;52.43;;;34.07;;
11473;SDS011;5793;52.238;13.438;2024-03-02T01:26:27;52.63;;;33.77;;
11473;SDS011;5793;52.238;13.438;2024-03-02T01:28:55;55.20;;;35.93;;
11473;SDS011;5793;52.238;13.438;2024-03-02T01:31:23;61.60;;;37.20;;
11473;SDS011;5793;52.238;13.438;2024-03-02T01:33:51;56.47;;;37.63;;
11473;SDS011;5793;52.238;13.438;2024-03-02T01:36:18;52.03;;;33.97;;
11473;SDS011;5793;52.238;13.438;2024-03-02T01:38:48;51.93;;;33.63;;
11473;SDS011;5793;52.238;13.438;2024-03-02T01:41:16;68.17;;;40.97;;
11473;SDS011;5793;52.238;13.438;2024-03-02T01:43:44;61.40;;;37.43;;
11473;SDS011;5793;52.238;13.438;2024-03-02T01:46:11;70.40;;;40.07;;
11473;SDS011;5793;52.238;13.438;2024-03-02T01:48:39;63.07;;;37.93;;
11473;SDS011;5793;52.238;13.438;2024-03-02T01:51:07;56.60;;;35.13;;
11473;SDS011;5793;52.238;13.438;2024-03-02T01:53:36;65.43;;;38.60;;
11473;SDS011;5793;52.238;13.438;2024-03-02T01:56:06;63.17;;;38.30;;
11473;SDS011;5793;52.238;13.438;2024-03-02T01:58:33;78.00;;;42.83;;
11473;SDS011;5793;52.238;13.438;2024-03-02T02:01:02;72.17;;;41.43;;
11473;SDS011;5793;52.238;13.438;2024-03-02T02:03:30;73.03;;;40.93;;
11473;SDS011;5793;52.238;13.438;2024-03-02T02:05:58;64.47;;;38.17;;
11473;SDS011;5793;52.238;13.438;2024-03-02T02:08:26;74.13;;;41.50;;
11473;SDS011;5793;52.238;13.438;2024-03-02T02:10:54;62.00;;;38.03;;
11473;SDS011;5793;52.238;13.438;2024-03-02T02:13:23;53.83;;;34.40;;
11473;SDS011;5793;52.238;13.438;2024-03-02T02:15:51;49.57;;;30.40;;
11473;SDS011;5793;52.238;13.438;2024-03-02T02:18:19;51.70;;;31.00;;
11473;SDS011;5793;52.238;13.438;2024-03-02T02:20:47;56.90;;;36.57;;
11473;SDS011;5793;52.238;13.438;2024-03-02T02:23:16;71.83;;;41.20;;
11473;SDS011;5793;52.238;13.438;2024-03-02T02:25:44;76.17;;;41.60;;
11473;SDS011;5793;52.238;13.438;2024-03-02T02:28:12;77.63;;;42.50;;
11473;SDS011;5793;52.238;13.438;2024-03-02T02:30:40;72.23;;;40.97;;
11473;SDS011;5793;52.238;13.438;2024-03-02T02:33:08;73.50;;;44.30;;
11473;SDS011;5793;52.238;13.438;2024-03-02T02:35:36;86.17;;;46.03;;
11473;SDS011;5793;52.238;13.438;2024-03-02T02:38:04;89.57;;;46.40;;
11473;SDS011;5793;52.238;13.438;2024-03-02T02:40:34;65.67;;;41.03;;
11473;SDS011;5793;52.238;13.438;2024-03-02T02:43:01;61.83;;;39.70;;
11473;SDS011;5793;52.238;13.438;2024-03-02T02:45:29;76.80;;;43.37;;
11473;SDS011;5793;52.238;13.438;2024-03-02T02:47:57;69.50;;;42.17;;
11473;SDS011;5793;52.238;13.438;2024-03-02T02:50:27;77.10;;;46.03;;
11473;SDS011;5793;52.238;13.438;2024-03-02T02:52:55;73.87;;;43.37;;
11473;SDS011;5793;52.238;13.438;2024-03-02T02:55:23;65.17;;;40.37;;
11473;SDS011;5793;52.238;13.438;2024-03-02T02:57:52;54.97;;;37.00;;
11473;SDS011;5793;52.238;13.438;2024-03-02T03:00:20;62.27;;;37.03;;
11473;SDS011;5793;52.238;13.438;2024-03-02T03:02:49;62.37;;;37.50;;
11473;SDS011;5793;52.238;13.438;2024-03-02T03:05:17;66.87;;;40.40;;
11473;SDS011;5793;52.238;13.438;2024-03-02T03:07:46;62.07;;;38.93;;
11473;SDS011;5793;52.238;13.438;2024-03-02T03:10:16;52.73;;;35.47;;
11473;SDS011;5793;52.238;13.438;2024-03-02T03:12:44;67.43;;;39.97;;
11473;SDS011;5793;52.238;13.438;2024-03-02T03:15:14;62.63;;;38.60;;
11473;SDS011;5793;52.238;13.438;2024-03-02T03:17:43;59.17;;;39.23;;
11473;SDS011;5793;52.238;13.438;2024-03-02T03:20:12;60.43;;;38.80;;
11473;SDS011;5793;52.238;13.438;2024-03-02T03:22:41;58.50;;;37.60;;
11473;SDS011;5793;52.238;13.438;2024-03-02T03:25:09;69.83;;;40.40;;
11473;SDS011;5793;52.238;13.438;2024-03-02T03:27:37;77.50;;;42.03;;
11473;SDS011;5793;52.238;13.438;2024-03-02T03:30:05;78.13;;;40.53;;
11473;SDS011;5793;52.238;13.438;2024-03-02T03:32:35;64.40;;;39.70;;
11473;SDS011;5793;52.238;13.438;2024-03-02T03:35:03;61.53;;;39.20;;
11473;SDS011;5793;52.238;13.438;2024-03-02T03:37:32;57.83;;;36.97;;
11473;SDS011;5793;52.238;13.438;2024-03-02T03:40:01;63.43;;;39.67;;
11473;SDS011;5793;52.238;13.438;2024-03-02T03:42:33;65.23;;;41.50;;
11473;SDS011;5793;52.238;13.438;2024-03-02T03:45:01;68.03;;;43.07;;
11473;SDS011;5793;52.238;13.438;2024-03-02T03:47:30;59.47;;;39.63;;
11473;SDS011;5793;52.238;13.438;2024-03-02T03:50:00;65.90;;;39.97;;
11473;SDS011;5793;52.238;13.438;2024-03-02T03:52:30;58.47;;;37.93;;
11473;SDS011;5793;52.238;13.438;2024-03-02T03:54:58;70.23;;;43.30;;
11473;SDS011;5793;52.238;13.438;2024-03-02T03:57:27;82.90;;;45.87;;
11473;SDS011;5793;52.238;13.438;2024-03-02T03:59:55;75.60;;;45.67;;
11473;SDS011;5793;52.238;13.438;2024-03-02T04:02:22;75.67;;;44.90;;
11473;SDS011;5793;52.238;13.438;2024-03-02T04:04:51;68.03;;;42.83;;
11473;SDS011;5793;52.238;13.438;2024-03-02T04:07:20;72.10;;;42.80;;
11473;SDS011;5793;52.238;13.438;2024-03-02T04:09:48;67.67;;;43.13;;
11473;SDS011;5793;52.238;13.438;2024-03-02T04:12:16;71.73;;;45.10;;
11473;SDS011;5793;52.238;13.438;2024-03-02T04:14:44;82.83;;;46.00;;
11473;SDS011;5793;52.238;13.438;2024-03-02T04:17:11;68.53;;;43.30;;
11473;SDS011;5793;52.238;13.438;2024-03-02T04:19:39;80.37;;;45.20;;
11473;SDS011;5793;52.238;13.438;2024-03-02T04:22:07;69.10;;;42.37;;
11473;SDS011;5793;52.238;13.438;2024-03-02T04:24:47;69.00;;;43.50;;
11473;SDS011;5793;52.238;13.438;2024-03-02T04:27:15;64.17;;;42.57;;
11473;SDS011;5793;52.238;13.438;2024-03-02T04:29:43;68.93;;;43.93;;
11473;SDS011;5793;52.238;13.438;2024-03-02T04:32:11;66.83;;;42.27;;
11473;SDS011;5793;52.238;13.438;2024-03-02T04:34:39;63.73;;;41.93;;
11473;SDS011;5793;52.238;13.438;2024-03-02T04:37:06;68.60;;;42.73;;
11473;SDS011;5793;52.238;13.438;2024-03-02T04:39:35;68.73;;;40.67;;
11473;SDS011;5793;52.238;13.438;2024-03-02T04:42:04;58.70;;;39.27;;
11473;SDS011;5793;52.238;13.438;2024-03-02T04:44:32;63.43;;;39.87;;
11473;SDS011;5793;52.238;13.438;2024-03-02T04:47:00;64.37;;;42.93;;
11473;SDS011;5793;52.238;13.438;2024-03-02T04:49:28;69.07;;;41.93;;
11473;SDS011;5793;52.238;13.438;2024-03-02T04:51:56;59.53;;;39.80;;
11473;SDS011;5793;52.238;13.438;2024-03-02T04:54:24;61.37;;;40.27;;
11473;SDS011;5793;52.238;13.438;2024-03-02T04:56:52;66.33;;;42.20;;
11473;SDS011;5793;52.238;13.438;2024-03-02T04:59:21;70.03;;;44.30;;
11473;SDS011;5793;52.238;13.438;2024-03-02T05:01:49;71.33;;;45.87;;
11473;SDS011;5793;52.238;13.438;2024-03-02T05:04:17;80.13;;;46.93;;
11473;SDS011;5793;52.238;13.438;2024-03-02T05:06:45;71.17;;;44.43;;
11473;SDS011;5793;52.238;13.438;2024-03-02T05:09:19;71.10;;;45.67;;
11473;SDS011;5793;52.238;13.438;2024-03-02T05:11:46;78.13;;;47.13;;
11473;SDS011;5793;52.238;13.438;2024-03-02T05:14:45;69.07;;;42.90;;
11473;SDS011;5793;52.238;13.438;2024-03-02T05:17:12;74.93;;;44.70;;
11473;SDS011;5793;52.238;13.438;2024-03-02T05:19:40;80.70;;;48.23;;
11473;SDS011;5793;52.238;13.438;2024-03-02T05:22:07;75.60;;;47.33;;
11473;SDS011;5793;52.238;13.438;2024-03-02T05:24:35;74.63;;;46.57;;
11473;SDS011;5793;52.238;13.438;2024-03-02T05:27:03;72.97;;;45.63;;
11473;SDS011;5793;52.238;13.438;2024-03-02T05:29:32;74.80;;;46.73;;
11473;SDS011;5793;52.238;13.438;2024-03-02T05:32:01;83.63;;;48.07;;
11473;SDS011;5793;52.238;13.438;2024-03-02T05:34:29;79.47;;;48.97;;
11473;SDS011;5793;52.238;13.438;2024-03-02T05:36:59;77.37;;;48.70;;
11473;SDS011;5793;52.238;13.438;2024-03-02T05:39:27;74.20;;;46.80;;
11473;SDS011;5793;52.238;13.438;2024-03-02T05:41:54;77.50;;;46.97;;
11473;SDS011;5793;52.238;13.438;2024-03-02T05:44:22;70.80;;;46.97;;
11473;SDS011;5793;52.238;13.438;2024-03-02T05:46:50;70.60;;;45.10;;
11473;SDS011;5793;52.238;13.438;2024-03-02T05:49:20;68.87;;;44.93;;
11473;SDS011;5793;52.238;13.438;2024-03-02T05:51:48;78.60;;;49.23;;
11473;SDS011;5793;52.238;13.438;2024-03-02T05:54:16;70.13;;;45.90;;
11473;SDS011;5793;52.238;13.438;2024-03-02T05:56:43;69.03;;;45.47;;
11473;SDS011;5793;52.238;13.438;2024-03-02T05:59:11;62.03;;;41.80;;
11473;SDS011;5793;52.238;13.438;2024-03-02T06:01:39;75.47;;;44.93;;
11473;SDS011;5793;52.238;13.438;2024-03-02T06:04:07;65.90;;;42.13;;
11473;SDS011;5793;52.238;13.438;2024-03-02T06:06:38;65.57;;;43.10;;
11473;SDS011;5793;52.238;13.438;2024-03-02T06:09:06;69.73;;;44.53;;
11473;SDS011;5793;52.238;13.438;2024-03-02T06:11:34;66.80;;;44.97;;
11473;SDS011;5793;52.238;13.438;2024-03-02T06:14:02;82.37;;;47.40;;
11473;SDS011;5793;52.238;13.438;2024-03-02T06:16:31;83.00;;;49.60;;
11473;SDS011;5793;52.238;13.438;2024-03-02T06:18:59;72.73;;;47.23;;
11473;SDS011;5793;52.238;13.438;2024-03-02T06:21:27;66.57;;;45.00;;
11473;SDS011;5793;52.238;13.438;2024-03-02T06:23:56;84.60;;;49.40;;
11473;SDS011;5793;52.238;13.438;2024-03-02T06:26:24;92.00;;;52.70;;
11473;SDS011;5793;52.238;13.438;2024-03-02T06:28:52;84.03;;;50.27;;
11473;SDS011;5793;52.238;13.438;2024-03-02T06:31:20;95.67;;;53.73;;
11473;SDS011;5793;52.238;13.438;2024-03-02T06:33:47;83.57;;;48.57;;
11473;SDS011;5793;52.238;13.438;2024-03-02T06:36:15;76.03;;;46.57;;
11473;SDS011;5793;52.238;13.438;2024-03-02T06:38:43;85.40;;;49.80;;
11473;SDS011;5793;52.238;13.438;2024-03-02T06:41:12;93.20;;;52.27;;
11473;SDS011;5793;52.238;13.438;2024-03-02T06:43:40;80.33;;;49.33;;
11473;SDS011;5793;52.238;13.438;2024-03-02T06:46:08;101.37;;;53.97;;
11473;SDS011;5793;52.238;13.438;2024-03-02T06:48:40;81.27;;;49.37;;
11473;SDS011;5793;52.238;13.438;2024-03-02T06:51:08;93.67;;;52.93;;
11473;SDS011;5793;52.238;13.438;2024-03-02T06:53:37;96.33;;;53.33;;
11473;SDS011;5793;52.238;13.438;2024-03-02T06:56:05;80.77;;;47.83;;
11473;SDS011;5793;52.238;13.438;2024-03-02T06:58:35;88.73;;;52.63;;
11473;SDS011;5793;52.238;13.438;2024-03-02T07:01:03;89.03;;;51.97;;
11473;SDS011;5793;52.238;13.438;2024-03-02T07:03:31;73.37;;;45.67;;
11473;SDS011;5793;52.238;13.438;2024-03-02T07:05:59;92.67;;;51.60;;
11473;SDS011;5793;52.238;13.438;2024-03-02T07:08:27;90.40;;;51.70;;
11473;SDS011;5793;52.238;13.438;2024-03-02T07:10:55;83.17;;;50.20;;
11473;SDS011;5793;52.238;13.438;2024-03-02T07:13:23;80.50;;;48.17;;
11473;SDS011;5793;52.238;13.438;2024-03-02T07:15:52;77.63;;;48.90;;
11473;SDS011;5793;52.238;13.438;2024-03-02T07:18:48;78.47;;;48.13;;
11473;SDS011;5793;52.238;13.438;2024-03-02T07:21:18;76.87;;;47.97;;
11473;SDS011;5793;52.238;13.438;2024-03-02T07:23:47;79.00;;;49.50;;
11473;SDS011;5793;52.238;13.438;2024-03-02T07:26:14;75.13;;;48.33;;
11473;SDS011;5793;52.238;13.438;2024-03-02T07:28:47;70.60;;;44.97;;
11473;SDS011;5793;52.238;13.438;2024-03-02T07:31:17;73.00;;;44.73;;
11473;SDS011;5793;52.238;13.438;2024-03-02T07:33:45;69.07;;;42.57;;
11473;SDS011;5793;52.238;13.438;2024-03-02T07:36:13;67.27;;;42.13;;
11473;SDS011;5793;52.238;13.438;2024-03-02T07:38:42;61.77;;;40.90;;
11473;SDS011;5793;52.238;13.438;2024-03-02T07:41:11;66.35;;;47.28;;
11473;SDS011;5793;52.238;13.438;2024-03-02T07:43:39;62.37;;;41.33;;
11473;SDS011;5793;52.238;13.438;2024-03-02T07:46:06;62.90;;;41.33;;
11473;SDS011;5793;52.238;13.438;2024-03-02T07:48:36;59.40;;;40.53;;
11473;SDS011;5793;52.238;13.438;2024-03-02T07:51:04;58.80;;;38.37;;
11473;SDS011;5793;52.238;13.438;2024-03-02T07:53:31;57.20;;;39.33;;
11473;SDS011;5793;52.238;13.438;2024-03-02T07:55:59;58.57;;;38.80;;
11473;SDS011;5793;52.238;13.438;2024-03-02T07:58:29;58.40;;;38.03;;
11473;SDS011;5793;52.238;13.438;2024-03-02T08:00:57;58.07;;;37.77;;
11473;SDS011;5793;52.238;13.438;2024-03-02T08:03:27;55.57;;;36.93;;
11473;SDS011;5793;52.238;13.438;2024-03-02T08:05:57;59.83;;;37.77;;
11473;SDS011;5793;52.238;13.438;2024-03-02T08:08:25;53.40;;;36.43;;
11473;SDS011;5793;52.238;13.438;2024-03-02T08:10:52;54.13;;;35.70;;
11473;SDS011;5793;52.238;13.438;2024-03-02T08:13:20;54.87;;;35.70;;
11473;SDS011;5793;52.238;13.438;2024-03-02T08:15:48;53.93;;;34.80;;
11473;SDS011;5793;52.238;13.438;2024-03-02T08:18:16;51.60;;;34.33;;
11473;SDS011;5793;52.238;13.438;2024-03-02T08:20:44;51.53;;;33.40;;
11473;SDS011;5793;52.238;13.438;2024-03-02T08:23:13;48.43;;;32.93;;
11473;SDS011;5793;52.238;13.438;2024-03-02T08:25:41;50.50;;;34.17;;
11473;SDS011;5793;52.238;13.438;2024-03-02T08:28:09;56.40;;;35.73;;
11473;SDS011;5793;52.238;13.438;2024-03-02T08:30:38;49.60;;;32.63;;
11473;SDS011;5793;52.238;13.438;2024-03-02T08:33:05;45.40;;;33.03;;
11473;SDS011;5793;52.238;13.438;2024-03-02T08:35:33;49.87;;;32.70;;
11473;SDS011;5793;52.238;13.438;2024-03-02T08:38:02;48.43;;;32.93;;
11473;SDS011;5793;52.238;13.438;2024-03-02T08:40:32;51.50;;;34.70;;
11473;SDS011;5793;52.238;13.438;2024-03-02T08:43:00;51.57;;;33.63;;
11473;SDS011;5793;52.238;13.438;2024-03-02T08:45:28;49.07;;;32.53;;
11473;SDS011;5793;52.238;13.438;2024-03-02T08:47:56;46.23;;;32.30;;
11473;SDS011;5793;52.238;13.438;2024-03-02T08:50:24;46.50;;;31.90;;
11473;SDS011;5793;52.238;13.438;2024-03-02T08:52:52;51.33;;;34.03;;
11473;SDS011;5793;52.238;13.438;2024-03-02T08:55:19;53.20;;;34.40;;
11473;SDS011;5793;52.238;13.438;2024-03-02T08:57:49;50.63;;;33.07;;
11473;SDS011;5793;52.238;13.438;2024-03-02T09:00:17;48.23;;;33.87;;
11473;SDS011;5793;52.238;13.438;2024-03-02T09:02:45;47.67;;;33.07;;
11473;SDS011;5793;52.238;13.438;2024-03-02T09:05:13;50.03;;;34.03;;
11473;SDS011;5793;52.238;13.438;2024-03-02T09:07:41;48.43;;;32.77;;
11473;SDS011;5793;52.238;13.438;2024-03-02T09:10:09;50.10;;;32.90;;
11473;SDS011;5793;52.238;13.438;2024-03-02T09:12:37;47.57;;;32.47;;
11473;SDS011;5793;52.238;13.438;2024-03-02T09:15:07;47.67;;;32.27;;
11473;SDS011;5793;52.238;13.438;2024-03-02T09:17:35;47.50;;;32.60;;
11473;SDS011;5793;52.238;13.438;2024-03-02T09:20:04;48.57;;;33.80;;
11473;SDS011;5793;52.238;13.438;2024-03-02T09:22:32;46.80;;;32.20;;
11473;SDS011;5793;52.238;13.438;2024-03-02T09:25:00;47.30;;;32.17;;
11473;SDS011;5793;52.238;13.438;2024-03-02T09:27:28;43.50;;;31.33;;
11473;SDS011;5793;52.238;13.438;2024-03-02T09:29:55;45.03;;;32.27;;
11473;SDS011;5793;52.238;13.438;2024-03-02T09:32:25;50.67;;;32.77;;
11473;SDS011;5793;52.238;13.438;2024-03-02T09:34:52;45.10;;;32.43;;
11473;SDS011;5793;52.238;13.438;2024-03-02T09:37:22;45.33;;;32.07;;
11473;SDS011;5793;52.238;13.438;2024-03-02T09:39:49;45.50;;;30.57;;
11473;SDS011;5793;52.238;13.438;2024-03-02T09:42:18;46.93;;;30.93;;
11473;SDS011;5793;52.238;13.438;2024-03-02T09:44:49;46.97;;;30.07;;
11473;SDS011;5793;52.238;13.438;2024-03-02T09:47:17;40.30;;;27.93;;
11473;SDS011;5793;52.238;13.438;2024-03-02T09:49:47;43.17;;;29.40;;
11473;SDS011;5793;52.238;13.438;2024-03-02T09:52:14;39.20;;;27.73;;
11473;SDS011;5793;52.238;13.438;2024-03-02T09:54:43;42.70;;;28.27;;
11473;SDS011;5793;52.238;13.438;2024-03-02T09:57:11;41.05;;;26.80;;
11473;SDS011;5793;52.238;13.438;2024-03-02T09:59:39;43.22;;;26.08;;
11473;SDS011;5793;52.238;13.438;2024-03-02T10:02:07;36.93;;;25.40;;
11473;SDS011;5793;52.238;13.438;2024-03-02T10:04:34;36.53;;;25.37;;
11473;SDS011;5793;52.238;13.438;2024-03-02T10:07:11;40.00;;;25.60;;
11473;SDS011;5793;52.238;13.438;2024-03-02T10:09:40;36.53;;;25.50;;
11473;SDS011;5793;52.238;13.438;2024-03-02T10:12:09;37.03;;;25.65;;
11473;SDS011;5793;52.238;13.438;2024-03-02T10:14:38;38.33;;;25.30;;
11473;SDS011;5793;52.238;13.438;2024-03-02T10:17:06;36.95;;;25.90;;
11473;SDS011;5793;52.238;13.438;2024-03-02T10:19:35;36.77;;;23.90;;
11473;SDS011;5793;52.238;13.438;2024-03-02T10:22:05;38.28;;;24.05;;
11473;SDS011;5793;52.238;13.438;2024-03-02T10:24:36;35.92;;;23.23;;
11473;SDS011;5793;52.238;13.438;2024-03-02T10:27:09;35.28;;;23.80;;
11473;SDS011;5793;52.238;13.438;2024-03-02T10:29:42;33.55;;;23.35;;
11473;SDS011;5793;52.238;13.438;2024-03-02T10:32:12;38.20;;;24.10;;
11473;SDS011;5793;52.238;13.438;2024-03-02T10:34:40;34.45;;;22.55;;
11473;SDS011;5793;52.238;13.438;2024-03-02T10:37:10;34.42;;;23.23;;
11473;SDS011;5793;52.238;13.438;2024-03-02T10:39:40;32.20;;;22.17;;
11473;SDS011;5793;52.238;13.438;2024-03-02T10:42:08;34.53;;;22.83;;
11473;SDS011;5793;52.238;13.438;2024-03-02T10:44:36;32.97;;;21.52;;
11473;SDS011;5793;52.238;13.438;2024-03-02T10:47:05;30.27;;;21.75;;
11473;SDS011;5793;52.238;13.438;2024-03-02T10:49:33;35.17;;;23.48;;
11473;SDS011;5793;52.238;13.438;2024-03-02T10:52:01;31.60;;;21.95;;
11473;SDS011;5793;52.238;13.438;2024-03-02T10:54:30;32.13;;;23.25;;
11473;SDS011;5793;52.238;13.438;2024-03-02T10:57:05;29.65;;;21.52;;
11473;SDS011;5793;52.238;13.438;2024-03-02T10:59:37;31.50;;;21.35;;
11473;SDS011;5793;52.238;13.438;2024-03-02T11:02:12;32.95;;;21.45;;
11473;SDS011;5793;52.238;13.438;2024-03-02T11:04:40;30.90;;;20.58;;
11473;SDS011;5793;52.238;13.438;2024-03-02T11:07:10;28.27;;;20.77;;
11473;SDS011;5793;52.238;13.438;2024-03-02T11:09:38;27.15;;;19.65;;
11473;SDS011;5793;52.238;13.438;2024-03-02T11:12:12;25.77;;;19.10;;
11473;SDS011;5793;52.238;13.438;2024-03-02T11:14:44;26.65;;;18.40;;
11473;SDS011;5793;52.238;13.438;2024-03-02T11:17:13;24.40;;;18.13;;
11473;SDS011;5793;52.238;13.438;2024-03-02T11:19:42;22.17;;;17.13;;
11473;SDS011;5793;52.238;13.438;2024-03-02T11:22:11;25.23;;;18.20;;
11473;SDS011;5793;52.238;13.438;2024-03-02T11:24:42;25.88;;;18.73;;
11473;SDS011;5793;52.238;13.438;2024-03-02T11:27:20;23.50;;;17.88;;
11473;SDS011;5793;52.238;13.438;2024-03-02T11:33:23;27.13;;;17.63;;
11473;SDS011;5793;52.238;13.438;2024-03-02T11:35:54;24.65;;;17.73;;
11473;SDS011;5793;52.238;13.438;2024-03-02T11:38:24;23.80;;;17.17;;
11473;SDS011;5793;52.238;13.438;2024-03-02T11:40:55;24.25;;;17.80;;
11473;SDS011;5793;52.238;13.438;2024-03-02T11:43:24;24.15;;;16.58;;
11473;SDS011;5793;52.238;13.438;2024-03-02T11:45:58;27.60;;;18.23;;
11473;SDS011;5793;52.238;13.438;2024-03-02T11:48:27;22.65;;;16.52;;
11473;SDS011;5793;52.238;13.438;2024-03-02T11:50:57;24.38;;;17.88;;
11473;SDS011;5793;52.238;13.438;2024-03-02T11:53:26;26.60;;;17.38;;
11473;SDS011;5793;52.238;13.438;2024-03-02T11:55:58;25.80;;;17.10;;
11473;SDS011;5793;52.238;13.438;2024-03-02T11:58:27;25.88;;;16.58;;
11473;SDS011;5793;52.238;13.438;2024-03-02T12:00:55;21.55;;;15.73;;
11473;SDS011;5793;52.238;13.438;2024-03-02T12:03:25;21.08;;;15.40;;
11473;SDS011;5793;52.238;13.438;2024-03-02T12:05:54;21.95;;;16.23;;
11473;SDS011;5793;52.238;13.438;2024-03-02T12:08:22;21.42;;;15.90;;
11473;SDS011;5793;52.238;13.438;2024-03-02T12:10:57;24.98;;;17.58;;
11473;SDS011;5793;52.238;13.438;2024-03-02T12:13:25;24.58;;;16.77;;
11473;SDS011;5793;52.238;13.438;2024-03-02T12:15:54;30.33;;;17.40;;
11473;SDS011;5793;52.238;13.438;2024-03-02T12:18:23;20.83;;;15.23;;
11473;SDS011;5793;52.238;13.438;2024-03-02T12:20:52;28.52;;;16.17;;
11473;SDS011;5793;52.238;13.438;2024-03-02T12:23:24;21.95;;;15.23;;
11473;SDS011;5793;52.238;13.438;2024-03-02T12:25:52;21.52;;;15.18;;
11473;SDS011;5793;52.238;13.438;2024-03-02T12:28:20;23.95;;;16.25;;
11473;SDS011;5793;52.238;13.438;2024-03-02T12:30:48;28.48;;;15.35;;
11473;SDS011;5793;52.238;13.438;2024-03-02T12:33:18;20.30;;;14.17;;
11473;SDS011;5793;52.238;13.438;2024-03-02T12:35:48;21.53;;;14.30;;
11473;SDS011;5793;52.238;13.438;2024-03-02T12:38:18;22.90;;;15.50;;
11473;SDS011;5793;52.238;13.438;2024-03-02T12:40:47;19.08;;;14.02;;
11473;SDS011;5793;52.238;13.438;2024-03-02T12:43:15;18.63;;;13.60;;
11473;SDS011;5793;52.238;13.438;2024-03-02T12:45:43;21.05;;;15.15;;
11473;SDS011;5793;52.238;13.438;2024-03-02T12:48:11;21.27;;;14.60;;
11473;SDS011;5793;52.238;13.438;2024-03-02T12:50:41;20.55;;;14.98;;
11473;SDS011;5793;52.238;13.438;2024-03-02T12:53:13;19.05;;;14.35;;
11473;SDS011;5793;52.238;13.438;2024-03-02T12:55:43;19.23;;;13.93;;
11473;SDS011;5793;52.238;13.438;2024-03-02T12:58:16;17.17;;;12.18;;
11473;SDS011;5793;52.238;13.438;2024-03-02T13:00:44;19.90;;;12.38;;
11473;SDS011;5793;52.238;13.438;2024-03-02T13:03:12;14.68;;;11.75;;
11473;SDS011;5793;52.238;13.438;2024-03-02T13:05:41;14.65;;;11.07;;
11473;SDS011;5793;52.238;13.438;2024-03-02T13:08:09;18.08;;;10.98;;
11473;SDS011;5793;52.238;13.438;2024-03-02T13:10:37;14.77;;;11.10;;
11473;SDS011;5793;52.238;13.438;2024-03-02T13:13:06;14.52;;;11.00;;
11473;SDS011;5793;52.238;13.438;2024-03-02T13:15:34;17.10;;;11.63;;
11473;SDS011;5793;52.238;13.438;2024-03-02T13:18:03;15.65;;;11.15;;
11473;SDS011;5793;52.238;13.438;2024-03-02T13:20:31;15.20;;;10.90;;
11473;SDS011;5793;52.238;13.438;2024-03-02T13:22:59;13.85;;;10.57;;
11473;SDS011;5793;52.238;13.438;2024-03-02T13:25:27;15.02;;;10.68;;
11473;SDS011;5793;52.238;13.438;2024-03-02T13:27:58;15.55;;;11.00;;
11473;SDS011;5793;52.238;13.438;2024-03-02T13:30:28;14.75;;;10.77;;
11473;SDS011;5793;52.238;13.438;2024-03-02T13:32:56;15.90;;;11.77;;
11473;SDS011;5793;52.238;13.438;2024-03-02T13:35:23;16.77;;;12.02;;
11473;SDS011;5793;52.238;13.438;2024-03-02T13:37:51;17.63;;;12.30;;
11473;SDS011;5793;52.238;13.438;2024-03-02T13:40:19;13.13;;;10.68;;
11473;SDS011;5793;52.238;13.438;2024-03-02T13:42:47;17.25;;;12.27;;
11473;SDS011;5793;52.238;13.438;2024-03-02T13:45:15;14.70;;;11.48;;
11473;SDS011;5793;52.238;13.438;2024-03-02T13:47:45;16.67;;;12.82;;
11473;SDS011;5793;52.238;13.438;2024-03-02T13:50:13;14.43;;;11.45;;
11473;SDS011;5793;52.238;13.438;2024-03-02T13:52:41;15.65;;;10.88;;
11473;SDS011;5793;52.238;13.438;2024-03-02T13:55:09;13.70;;;10.10;;
11473;SDS011;5793;52.238;13.438;2024-03-02T13:57:36;14.23;;;10.95;;
11473;SDS011;5793;52.238;13.438;2024-03-02T14:00:05;17.50;;;11.27;;
11473;SDS011;5793;52.238;13.438;2024-03-02T14:02:37;16.17;;;11.82;;
11473;SDS011;5793;52.238;13.438;2024-03-02T14:05:06;16.60;;;12.02;;
11473;SDS011;5793;52.238;13.438;2024-03-02T14:07:37;15.25;;;11.80;;
11473;SDS011;5793;52.238;13.438;2024-03-02T14:10:05;16.50;;;12.57;;
11473;SDS011;5793;52.238;13.438;2024-03-02T14:12:33;13.35;;;10.60;;
11473;SDS011;5793;52.238;13.438;2024-03-02T14:15:01;12.88;;;9.80;;
11473;SDS011;5793;52.238;13.438;2024-03-02T14:17:29;13.20;;;10.27;;
11473;SDS011;5793;52.238;13.438;2024-03-02T14:19:58;17.75;;;12.55;;
11473;SDS011;5793;52.238;13.438;2024-03-02T14:22:27;16.40;;;11.65;;
11473;SDS011;5793;52.238;13.438;2024-03-02T14:24:55;15.77;;;11.73;;
11473;SDS011;5793;52.238;13.438;2024-03-02T14:27:23;18.15;;;13.27;;
11473;SDS011;5793;52.238;13.438;2024-03-02T14:30:10;16.17;;;11.95;;
11473;SDS011;5793;52.238;13.438;2024-03-02T14:32:39;15.88;;;12.05;;
11473;SDS011;5793;52.238;13.438;2024-03-02T14:35:07;16.65;;;12.82;;